createdAt,value
2018-05-31T00:01:32.893Z,8.47
2018-05-31T00:06:28.302Z,9.17
2018-05-31T00:11:23.270Z,12.03
2018-05-31T00:16:17.853Z,12.00
2018-05-31T00:21:12.989Z,7.17
2018-05-31T00:26:08.551Z,12.20
2018-05-31T00:31:03.435Z,8.00
2018-05-31T00:35:58.824Z,7.90
2018-05-31T00:40:54.224Z,8.40
2018-05-31T00:45:49.064Z,10.87
2018-05-31T00:50:44.772Z,8.40
2018-05-31T01:11:42.360Z,8.93
2018-05-31T01:16:36.942Z,12.90
2018-05-31T01:21:31.366Z,11.23
2018-05-31T01:26:25.921Z,14.60
2018-05-31T01:31:20.463Z,10.40
2018-05-31T01:36:15.034Z,12.20
2018-05-31T01:41:09.599Z,13.17
2018-05-31T01:46:04.902Z,14.70
2018-05-31T01:50:59.450Z,12.10
2018-05-31T01:55:53.984Z,11.80
2018-05-31T02:00:48.551Z,12.60
2018-05-31T02:05:43.222Z,12.20
2018-05-31T02:10:38.552Z,8.77
2018-05-31T02:15:33.847Z,12.60
2018-05-31T02:20:28.543Z,15.10
2018-05-31T02:25:23.081Z,9.73
2018-05-31T02:30:17.754Z,12.57
2018-05-31T02:35:12.484Z,14.43
2018-05-31T02:40:07.629Z,11.07
2018-05-31T02:45:01.991Z,14.83
2018-05-31T02:49:56.723Z,8.83
2018-05-31T02:54:51.168Z,10.23
2018-05-31T02:59:46.649Z,7.73
2018-05-31T03:04:41.246Z,10.33
2018-05-31T03:09:35.825Z,9.13
2018-05-31T03:14:30.250Z,6.90
2018-05-31T03:19:24.952Z,11.20
2018-05-31T03:24:19.335Z,5.60
2018-05-31T03:29:13.904Z,10.60
2018-05-31T03:34:08.292Z,8.13
2018-05-31T03:39:02.867Z,8.50
2018-05-31T03:43:57.403Z,8.87
2018-05-31T03:48:51.973Z,6.37
2018-05-31T03:53:46.485Z,11.10
2018-05-31T03:58:41.084Z,10.40
2018-05-31T04:03:35.644Z,6.73
2018-05-31T04:08:30.342Z,5.93
2018-05-31T04:13:24.892Z,6.13
2018-05-31T04:18:19.463Z,6.87
2018-05-31T04:23:14.229Z,5.23
2018-05-31T04:28:08.997Z,5.67
2018-05-31T04:33:03.365Z,5.63
2018-05-31T04:37:57.936Z,10.37
2018-05-31T04:42:52.676Z,5.07
2018-05-31T04:47:47.473Z,5.23
2018-05-31T04:52:42.251Z,8.33
2018-05-31T04:57:38.490Z,6.53
2018-05-31T05:02:33.636Z,7.47
2018-05-31T05:07:28.954Z,7.47
2018-05-31T05:12:23.528Z,7.00
2018-05-31T05:17:18.061Z,7.10
2018-05-31T05:22:13.393Z,7.87
2018-05-31T05:27:08.797Z,6.57
2018-05-31T05:32:03.369Z,10.23
2018-05-31T05:36:57.750Z,6.13
2018-05-31T05:41:53.037Z,7.83
2018-05-31T05:46:47.411Z,6.50
2018-05-31T05:51:43.317Z,4.27
2018-05-31T05:56:38.905Z,5.60
2018-05-31T06:01:33.764Z,7.73
2018-05-31T06:06:28.178Z,6.13
2018-05-31T06:11:23.794Z,3.63
2018-05-31T06:16:19.440Z,8.33
2018-05-31T06:21:15.064Z,5.30
2018-05-31T06:26:09.455Z,7.63
2018-05-31T06:31:03.762Z,4.90
2018-05-31T06:35:58.339Z,7.73
2018-05-31T06:40:53.463Z,6.70
2018-05-31T06:45:48.846Z,8.47
2018-05-31T06:50:43.464Z,7.60
2018-05-31T06:55:37.902Z,5.07
2018-05-31T07:00:32.269Z,8.10
2018-05-31T07:05:26.632Z,6.03
2018-05-31T07:10:22.380Z,6.40
2018-05-31T07:15:16.873Z,7.97
2018-05-31T07:20:11.212Z,8.00
2018-05-31T07:25:05.346Z,4.97
2018-05-31T07:29:59.697Z,6.17
2018-05-31T07:34:54.211Z,7.90
2018-05-31T07:39:48.323Z,7.43
2018-05-31T07:44:43.880Z,6.90
2018-05-31T07:49:39.012Z,6.27
2018-05-31T07:54:33.377Z,6.57
2018-05-31T07:59:29.248Z,7.80
2018-05-31T08:04:23.621Z,9.17
2018-05-31T08:09:18.727Z,7.87
2018-05-31T08:14:13.214Z,5.73
2018-05-31T08:19:07.564Z,10.37
2018-05-31T08:24:02.703Z,7.67
2018-05-31T08:28:57.110Z,10.53
2018-05-31T08:33:51.465Z,10.70
2018-05-31T08:38:45.897Z,8.83
2018-05-31T08:43:40.458Z,8.50
2018-05-31T08:48:34.829Z,10.60
2018-05-31T08:53:29.175Z,7.40
2018-05-31T08:58:23.648Z,8.23
2018-05-31T09:03:18.075Z,5.83
2018-05-31T09:08:12.552Z,7.73
2018-05-31T09:13:07.065Z,5.83
2018-05-31T09:18:01.595Z,8.17
2018-05-31T09:22:55.968Z,5.50
2018-05-31T09:27:50.692Z,9.93
2018-05-31T09:32:45.041Z,5.47
2018-05-31T09:37:40.151Z,7.97
2018-05-31T09:42:35.106Z,7.53
2018-05-31T09:47:29.470Z,3.17
2018-05-31T09:52:24.120Z,6.43
2018-05-31T09:57:19.558Z,8.97
2018-05-31T10:02:14.978Z,7.60
2018-05-31T10:07:10.376Z,7.57
2018-05-31T10:12:05.031Z,6.47
2018-05-31T10:16:59.650Z,9.03
2018-05-31T10:21:54.271Z,11.33
2018-05-31T10:26:48.949Z,6.97
2018-05-31T10:31:44.422Z,7.70
2018-05-31T10:36:39.248Z,7.47
2018-05-31T10:41:33.901Z,7.00
2018-05-31T10:46:29.938Z,7.47
2018-05-31T10:51:25.680Z,7.33
2018-05-31T10:56:21.698Z,6.93
2018-05-31T11:01:17.182Z,7.47
2018-05-31T11:06:11.960Z,6.43
2018-05-31T11:11:06.716Z,8.20
2018-05-31T11:16:01.562Z,7.27
2018-05-31T11:20:57.026Z,6.83
2018-05-31T11:25:51.729Z,9.00
2018-05-31T11:30:46.601Z,7.97
2018-05-31T11:35:41.370Z,4.10
2018-05-31T11:40:36.293Z,5.47
2018-05-31T11:45:30.909Z,7.93
2018-05-31T11:50:25.562Z,8.00
2018-05-31T11:55:20.304Z,6.10
2018-05-31T12:00:15.234Z,8.83
2018-05-31T12:05:09.868Z,5.53
2018-05-31T12:10:04.540Z,8.50
2018-05-31T12:14:59.178Z,3.87
2018-05-31T12:19:53.809Z,6.67
2018-05-31T12:24:48.452Z,5.83
2018-05-31T12:29:43.864Z,4.40
2018-05-31T12:34:39.447Z,5.73
2018-05-31T12:39:34.266Z,6.57
2018-05-31T12:44:29.946Z,4.83
2018-05-31T12:49:24.769Z,5.90
2018-05-31T12:54:20.353Z,6.03
2018-05-31T12:59:15.473Z,7.27
2018-05-31T13:04:11.076Z,5.23
2018-05-31T13:09:05.657Z,6.20
2018-05-31T13:14:01.063Z,5.47
2018-05-31T13:18:58.521Z,8.10
2018-05-31T13:23:54.259Z,4.73
2018-05-31T13:28:49.103Z,5.80
2018-05-31T13:33:44.187Z,5.00
2018-05-31T13:38:38.914Z,6.10
2018-05-31T13:43:33.749Z,5.60
2018-05-31T13:48:29.203Z,7.53
2018-05-31T13:53:24.233Z,6.10
2018-05-31T13:58:25.064Z,5.80
2018-05-31T14:03:21.642Z,6.67
2018-05-31T14:08:16.467Z,8.70
2018-05-31T14:13:11.358Z,6.07
2018-05-31T14:18:05.652Z,5.33
2018-05-31T14:23:01.034Z,7.40
2018-05-31T14:27:55.729Z,3.87
2018-05-31T14:32:50.393Z,4.37
2018-05-31T14:37:45.206Z,8.10
2018-05-31T14:42:39.855Z,6.67
2018-05-31T14:47:34.558Z,5.87
2018-05-31T14:52:29.210Z,4.57
2018-05-31T14:57:23.830Z,3.27
2018-05-31T15:02:19.228Z,4.40
2018-05-31T15:07:14.025Z,7.10
2018-05-31T15:12:08.723Z,6.77
2018-05-31T15:17:03.389Z,6.13
2018-05-31T15:21:58.780Z,5.63
2018-05-31T15:26:53.410Z,6.63
2018-05-31T15:31:48.739Z,3.60
2018-05-31T15:36:44.165Z,4.30
2018-05-31T15:41:39.606Z,6.70
2018-05-31T15:46:35.010Z,4.10
2018-05-31T15:51:29.814Z,5.90
2018-05-31T15:56:24.452Z,5.87
2018-05-31T16:01:19.852Z,6.67
2018-05-31T16:06:14.593Z,5.63
2018-05-31T16:11:09.363Z,10.20
2018-05-31T16:16:04.001Z,7.37
2018-05-31T16:20:58.645Z,7.10
2018-05-31T16:25:53.533Z,3.80
2018-05-31T16:30:48.420Z,5.50
2018-05-31T16:35:43.087Z,4.57
2018-05-31T16:40:37.773Z,5.10
2018-05-31T16:45:32.548Z,6.50
2018-05-31T16:50:27.292Z,6.77
2018-05-31T16:55:22.720Z,5.50
2018-05-31T17:00:18.396Z,5.33
2018-05-31T17:05:13.109Z,7.73
2018-05-31T17:10:07.711Z,4.47
2018-05-31T17:15:02.378Z,8.23
2018-05-31T17:19:57.832Z,6.77
2018-05-31T17:24:52.535Z,6.57
2018-05-31T17:29:47.379Z,5.30
2018-05-31T17:34:42.350Z,7.03
2018-05-31T17:39:36.736Z,6.17
2018-05-31T17:44:31.260Z,8.67
2018-05-31T17:49:25.839Z,6.83
2018-05-31T17:54:20.274Z,8.23
2018-05-31T17:59:14.689Z,7.40
2018-05-31T18:04:09.179Z,6.23
2018-05-31T18:09:03.141Z,4.90
2018-05-31T18:13:57.580Z,5.80
2018-05-31T18:18:52.724Z,4.93
2018-05-31T18:23:47.188Z,5.63
2018-05-31T18:28:41.695Z,5.50
2018-05-31T18:33:36.143Z,9.37
2018-05-31T18:38:30.602Z,7.10
2018-05-31T18:43:25.030Z,6.97
2018-05-31T18:48:28.571Z,7.63
2018-05-31T18:53:25.296Z,7.77
2018-05-31T18:58:19.840Z,8.10
2018-05-31T19:03:17.265Z,12.57
2018-05-31T19:08:12.579Z,8.20
2018-05-31T19:13:16.061Z,7.60
2018-05-31T19:18:18.490Z,6.60
2018-05-31T19:23:13.097Z,6.67
2018-05-31T19:28:07.501Z,9.00
2018-05-31T19:33:02.955Z,10.67
2018-05-31T19:37:57.539Z,8.27
2018-05-31T19:42:57.106Z,9.27
2018-05-31T19:47:51.492Z,10.17
2018-05-31T19:52:51.415Z,9.73
2018-05-31T19:57:51.517Z,8.57
2018-05-31T20:02:51.594Z,10.70
2018-05-31T20:07:47.103Z,11.70
2018-05-31T20:12:42.539Z,13.47
2018-05-31T20:17:37.980Z,11.37
2018-05-31T20:22:32.551Z,12.53
2018-05-31T20:27:28.113Z,14.00
2018-05-31T20:32:23.999Z,14.37
2018-05-31T20:37:21.559Z,14.77
2018-05-31T20:42:16.254Z,11.20
2018-05-31T20:47:12.847Z,15.03
2018-05-31T20:52:08.431Z,15.07
2018-05-31T20:57:03.038Z,12.57
2018-05-31T21:01:57.488Z,14.97
2018-05-31T21:06:53.075Z,12.30
2018-05-31T21:11:47.612Z,15.10
2018-05-31T21:16:42.392Z,15.23
2018-05-31T21:21:36.794Z,13.60
2018-05-31T21:26:31.401Z,12.03
2018-05-31T21:31:26.589Z,10.83
2018-05-31T21:36:22.014Z,11.63
2018-05-31T21:41:16.968Z,13.87
2018-05-31T21:46:11.412Z,13.73
2018-05-31T21:51:06.080Z,16.07
2018-05-31T21:56:00.645Z,10.93
2018-05-31T22:00:57.216Z,14.70
2018-05-31T22:05:51.999Z,12.93
2018-05-31T22:10:47.307Z,13.03
2018-05-31T22:15:41.966Z,15.97
2018-05-31T22:20:36.411Z,15.40
2018-05-31T22:25:30.971Z,15.27
2018-05-31T22:30:25.521Z,16.17
2018-05-31T22:35:19.918Z,13.73
2018-05-31T22:40:14.581Z,15.87
2018-05-31T22:45:08.981Z,13.53
2018-05-31T22:50:03.419Z,16.33
2018-05-31T22:54:58.139Z,16.70
2018-05-31T22:59:52.818Z,18.17
2018-05-31T23:04:47.949Z,15.33
2018-05-31T23:09:42.321Z,15.03
2018-05-31T23:14:37.592Z,14.23
2018-05-31T23:19:32.251Z,17.73
2018-05-31T23:24:27.481Z,14.63
2018-05-31T23:29:23.160Z,15.67
2018-05-31T23:34:17.707Z,17.77
2018-05-31T23:39:13.485Z,20.37
2018-05-31T23:44:07.964Z,13.10
2018-05-31T23:49:03.220Z,17.43
2018-05-31T23:53:57.739Z,17.20
2018-05-31T23:58:52.140Z,15.67
